createdAt,value
2017-05-07T00:00:00.743Z,73072
2017-05-07T00:00:10.553Z,73069
2017-05-07T00:00:20.645Z,73069
2017-05-07T00:00:30.489Z,73067
2017-05-07T00:00:40.585Z,73075
2017-05-07T00:00:50.681Z,73090
2017-05-07T00:01:00.780Z,73083
2017-05-07T00:01:10.884Z,73087
2017-05-07T00:01:20.979Z,73093
2017-05-07T00:01:30.786Z,73093
2017-05-07T00:01:40.602Z,73092
2017-05-07T00:01:50.696Z,73086
2017-05-07T00:02:00.797Z,73091
2017-05-07T00:02:10.315Z,73082
2017-05-07T00:02:20.409Z,73077
2017-05-07T00:02:30.504Z,73071
2017-05-07T00:02:40.594Z,73072
2017-05-07T00:02:50.689Z,73079
2017-05-07T00:03:00.804Z,73078
2017-05-07T00:03:10.910Z,73076
2017-05-07T00:03:21.006Z,73082
2017-05-07T00:03:31.105Z,73089
2017-05-07T00:03:40.909Z,73095
2017-05-07T00:03:51.001Z,73088
2017-05-07T00:04:01.098Z,73091
2017-05-07T00:04:10.915Z,73089
2017-05-07T00:04:20.715Z,73093
2017-05-07T00:04:30.519Z,73099
2017-05-07T00:04:40.617Z,73101
2017-05-07T00:04:50.742Z,73097
2017-05-07T00:05:00.840Z,73084
2017-05-07T00:05:10.940Z,73087
2017-05-07T00:05:20.741Z,73091
2017-05-07T00:05:30.584Z,73083
2017-05-07T00:05:40.682Z,73087
2017-05-07T00:05:50.799Z,73084
2017-05-07T00:06:00.892Z,73084
2017-05-07T00:06:10.412Z,73087
2017-05-07T00:06:20.505Z,73087
2017-05-07T00:06:30.016Z,73078
2017-05-07T00:06:40.110Z,73088
2017-05-07T00:06:50.207Z,73079
2017-05-07T00:07:00.303Z,73074
2017-05-07T00:07:10.391Z,73074
2017-05-07T00:07:20.205Z,73075
2017-05-07T00:07:30.016Z,73072
2017-05-07T00:07:40.115Z,73068
2017-05-07T00:07:50.209Z,73072
2017-05-07T00:08:00.012Z,73082
2017-05-07T00:08:09.851Z,73089
2017-05-07T00:08:19.955Z,73086
2017-05-07T00:08:29.759Z,73086
2017-05-07T00:08:39.568Z,73089
2017-05-07T00:08:49.378Z,73083
2017-05-07T00:08:59.474Z,73087
2017-05-07T00:09:09.568Z,73089
2017-05-07T00:09:19.380Z,73078
2017-05-07T00:09:29.474Z,73062
2017-05-07T00:09:39.567Z,73053
2017-05-07T00:09:49.661Z,73046
2017-05-07T00:09:59.751Z,73060
2017-05-07T00:10:09.840Z,73081
2017-05-07T00:10:19.928Z,73090
2017-05-07T00:10:29.740Z,73094
2017-05-07T00:10:39.544Z,73091
2017-05-07T00:10:49.644Z,73090
2017-05-07T00:10:59.736Z,73091
2017-05-07T00:11:09.579Z,73076
2017-05-07T00:11:19.672Z,73074
2017-05-07T00:11:29.482Z,73062
2017-05-07T00:11:39.580Z,73076
2017-05-07T00:11:49.671Z,73091
2017-05-07T00:11:59.761Z,73088
2017-05-07T00:12:09.565Z,73086
2017-05-07T00:12:19.665Z,73088
2017-05-07T00:12:29.470Z,73091
2017-05-07T00:12:39.282Z,73092
2017-05-07T00:12:49.374Z,73094
2017-05-07T00:12:59.179Z,73090
2017-05-07T00:13:08.706Z,73090
2017-05-07T00:13:18.516Z,73094
2017-05-07T00:13:28.327Z,73091
2017-05-07T00:13:38.140Z,73089
2017-05-07T00:13:48.236Z,73081
2017-05-07T00:13:58.343Z,73073
2017-05-07T00:14:07.886Z,73074
2017-05-07T00:14:17.687Z,73081
2017-05-07T00:14:27.493Z,73077
2017-05-07T00:14:37.006Z,73075
2017-05-07T00:14:46.815Z,73087
2017-05-07T00:14:56.929Z,73083
2017-05-07T00:15:07.017Z,73069
2017-05-07T00:15:17.117Z,73061
2017-05-07T00:15:26.917Z,73082
2017-05-07T00:15:37.011Z,73093
2017-05-07T00:15:46.815Z,73098
2017-05-07T00:15:56.333Z,73096
2017-05-07T00:16:06.419Z,73097
2017-05-07T00:16:15.928Z,73096
2017-05-07T00:16:25.778Z,73092
2017-05-07T00:16:35.588Z,73094
2017-05-07T00:16:45.683Z,73090
2017-05-07T00:16:55.776Z,73094
2017-05-07T00:17:05.869Z,73091
2017-05-07T00:17:15.963Z,73091
2017-05-07T00:17:26.057Z,73093
2017-05-07T00:17:36.151Z,73090
2017-05-07T00:17:46.240Z,73090
2017-05-07T00:17:56.051Z,73088
2017-05-07T00:18:05.857Z,73091
2017-05-07T00:18:15.659Z,73095
2017-05-07T00:18:25.465Z,73097
2017-05-07T00:18:35.558Z,73092
2017-05-07T00:18:45.655Z,73089
2017-05-07T00:18:55.471Z,73080
2017-05-07T00:19:05.566Z,73085
2017-05-07T00:19:15.661Z,73093
2017-05-07T00:19:25.182Z,73099
2017-05-07T00:19:35.277Z,73097
2017-05-07T00:19:45.369Z,73088
2017-05-07T00:19:55.465Z,73073
2017-05-07T00:20:05.557Z,73057
2017-05-07T00:20:15.390Z,73068
2017-05-07T00:20:24.908Z,73066
2017-05-07T00:20:34.711Z,73073
2017-05-07T00:20:44.806Z,73076
2017-05-07T00:20:54.901Z,73087
2017-05-07T00:21:05.002Z,73102
2017-05-07T00:21:15.093Z,73087
2017-05-07T00:21:24.896Z,73075
2017-05-07T00:21:34.989Z,73073
2017-05-07T00:21:45.078Z,73076
2017-05-07T00:21:54.882Z,73069
2017-05-07T00:22:04.978Z,73078
2017-05-07T00:22:15.063Z,73072
2017-05-07T00:22:24.865Z,73077
2017-05-07T00:22:34.959Z,73086
2017-05-07T00:22:44.770Z,73087
2017-05-07T00:22:54.856Z,73083
2017-05-07T00:23:04.978Z,73081
2017-05-07T00:23:15.274Z,73066
2017-05-07T00:23:24.834Z,73067
2017-05-07T00:23:34.920Z,73056
2017-05-07T00:23:45.011Z,73067
2017-05-07T00:23:54.525Z,73072
2017-05-07T00:24:04.618Z,73079
2017-05-07T00:24:14.424Z,73085
2017-05-07T00:24:24.250Z,73087
2017-05-07T00:24:34.342Z,73078
2017-05-07T00:24:44.157Z,73080
2017-05-07T00:24:54.248Z,73085
2017-05-07T00:25:04.339Z,73082
2017-05-07T00:25:14.145Z,73076
2017-05-07T00:25:24.239Z,73054
2017-05-07T00:25:34.331Z,73044
2017-05-07T00:25:44.424Z,73040
2017-05-07T00:25:54.516Z,73046
2017-05-07T00:26:04.611Z,73059
2017-05-07T00:26:14.417Z,73073
2017-05-07T00:26:24.256Z,73078
2017-05-07T00:26:34.356Z,73079
2017-05-07T00:26:44.160Z,73073
2017-05-07T00:26:53.966Z,73065
2017-05-07T00:27:04.069Z,73074
2017-05-07T00:27:14.157Z,73078
2017-05-07T00:27:24.267Z,73078
2017-05-07T00:27:34.357Z,73093
2017-05-07T00:27:44.448Z,73100
2017-05-07T00:27:54.544Z,73108
2017-05-07T00:28:04.353Z,73101
2017-05-07T00:28:13.868Z,73102
2017-05-07T00:28:23.963Z,73104
2017-05-07T00:28:34.059Z,73101
2017-05-07T00:28:44.154Z,73095
2017-05-07T00:28:54.251Z,73100
2017-05-07T00:29:04.384Z,73094
2017-05-07T00:29:14.192Z,73091
2017-05-07T00:29:24.286Z,73090
2017-05-07T00:29:34.377Z,73074
2017-05-07T00:29:44.477Z,73073
2017-05-07T00:29:54.575Z,73076
2017-05-07T00:30:04.669Z,73073
2017-05-07T00:30:14.477Z,73090
2017-05-07T00:30:24.285Z,73094
2017-05-07T00:30:34.379Z,73095
2017-05-07T00:30:44.470Z,73091
2017-05-07T00:30:54.272Z,73095
2017-05-07T00:31:04.075Z,73098
2017-05-07T00:31:14.173Z,73099
2017-05-07T00:31:24.273Z,73097
2017-05-07T00:31:34.398Z,73101
2017-05-07T00:31:44.499Z,73104
2017-05-07T00:31:54.303Z,73101
2017-05-07T00:32:04.389Z,73100
2017-05-07T00:32:14.193Z,73100
2017-05-07T00:32:24.294Z,73103
2017-05-07T00:32:34.390Z,73108
2017-05-07T00:32:44.485Z,73110
2017-05-07T00:32:54.293Z,73108
2017-05-07T00:33:04.386Z,73109
2017-05-07T00:33:13.903Z,73105
2017-05-07T00:33:23.711Z,73102
2017-05-07T00:33:33.810Z,73107
2017-05-07T00:33:43.624Z,73100
2017-05-07T00:33:53.434Z,73102
2017-05-07T00:34:03.531Z,73103
2017-05-07T00:34:13.333Z,73095
2017-05-07T00:34:23.426Z,73086
2017-05-07T00:34:33.515Z,73092
2017-05-07T00:34:43.328Z,73086
2017-05-07T00:34:53.418Z,73091
2017-05-07T00:35:03.515Z,73104
2017-05-07T00:35:13.602Z,73100
2017-05-07T00:35:23.120Z,73097
2017-05-07T00:35:32.921Z,73096
2017-05-07T00:35:43.014Z,73099
2017-05-07T00:35:52.850Z,73104
2017-05-07T00:36:02.941Z,73106
2017-05-07T00:36:12.454Z,73106
2017-05-07T00:36:21.969Z,73106
2017-05-07T00:36:32.057Z,73102
2017-05-07T00:36:41.865Z,73110
2017-05-07T00:36:51.961Z,73109
2017-05-07T00:37:02.060Z,73098
2017-05-07T00:37:11.859Z,73089
2017-05-07T00:37:21.383Z,73084
2017-05-07T00:37:31.477Z,73079
2017-05-07T00:37:41.567Z,73085
2017-05-07T00:37:51.664Z,73091
2017-05-07T00:38:01.796Z,73083
2017-05-07T00:38:11.600Z,73089
2017-05-07T00:38:21.406Z,73092
2017-05-07T00:38:31.496Z,73090
2017-05-07T00:38:41.588Z,73085
2017-05-07T00:38:51.680Z,73083
2017-05-07T00:39:01.773Z,73090
2017-05-07T00:39:11.870Z,73099
2017-05-07T00:39:21.677Z,73105
2017-05-07T00:39:31.774Z,73104
2017-05-07T00:39:41.864Z,73105
2017-05-07T00:39:51.960Z,73103
2017-05-07T00:40:02.085Z,73096
2017-05-07T00:40:12.177Z,73091
2017-05-07T00:40:22.266Z,73088
2017-05-07T00:40:32.371Z,73090
2017-05-07T00:40:42.488Z,73098
2017-05-07T00:40:52.582Z,73104
2017-05-07T00:41:02.706Z,73102
2017-05-07T00:41:12.803Z,73095
2017-05-07T00:41:22.325Z,73092
2017-05-07T00:41:32.452Z,73086
2017-05-07T00:41:42.548Z,73074
2017-05-07T00:41:52.643Z,73075
2017-05-07T00:42:02.738Z,73087
2017-05-07T00:42:12.543Z,73086
2017-05-07T00:42:22.350Z,73088
2017-05-07T00:42:32.447Z,73100
2017-05-07T00:42:42.288Z,73107
2017-05-07T00:42:52.381Z,73108
2017-05-07T00:43:02.193Z,73109
2017-05-07T00:43:12.282Z,73100
2017-05-07T00:43:22.090Z,73107
2017-05-07T00:43:31.903Z,73120
2017-05-07T00:43:42.005Z,73125
2017-05-07T00:43:52.095Z,73132
2017-05-07T00:44:01.902Z,73130
2017-05-07T00:44:12.002Z,73128
2017-05-07T00:44:22.097Z,73127
2017-05-07T00:44:31.907Z,73113
2017-05-07T00:44:41.997Z,73106
2017-05-07T00:44:52.094Z,73104
2017-05-07T00:45:01.898Z,73110
2017-05-07T00:45:11.701Z,73111
2017-05-07T00:45:21.218Z,73108
2017-05-07T00:45:31.306Z,73103
2017-05-07T00:45:41.146Z,73109
2017-05-07T00:45:50.947Z,73115
2017-05-07T00:46:01.038Z,73112
2017-05-07T00:46:11.126Z,73115
2017-05-07T00:46:20.970Z,73106
2017-05-07T00:46:30.808Z,73094
2017-05-07T00:46:40.914Z,73098
2017-05-07T00:46:50.726Z,73103
2017-05-07T00:47:00.833Z,73095
2017-05-07T00:47:10.926Z,73097
2017-05-07T00:47:21.025Z,73099
2017-05-07T00:47:31.116Z,73087
2017-05-07T00:47:41.210Z,73060
2017-05-07T00:47:51.046Z,73051
2017-05-07T00:48:01.140Z,73065
2017-05-07T00:48:11.233Z,73085
2017-05-07T00:48:20.749Z,73099
2017-05-07T00:48:30.845Z,73098
2017-05-07T00:48:40.943Z,73097
2017-05-07T00:48:51.033Z,73104
2017-05-07T00:49:01.127Z,73088
2017-05-07T00:49:11.227Z,73088
2017-05-07T00:49:21.318Z,73100
2017-05-07T00:49:31.133Z,73103
2017-05-07T00:49:41.231Z,73096
2017-05-07T00:49:51.036Z,73093
2017-05-07T00:50:01.129Z,73086
2017-05-07T00:50:11.219Z,73086
2017-05-07T00:50:21.021Z,73090
2017-05-07T00:50:30.829Z,73092
2017-05-07T00:50:40.927Z,73102
2017-05-07T00:50:51.019Z,73091
2017-05-07T00:51:01.115Z,73085
2017-05-07T00:51:10.954Z,73085
2017-05-07T00:51:20.761Z,73090
2017-05-07T00:51:30.281Z,73076
2017-05-07T00:51:40.102Z,73074
2017-05-07T00:51:50.203Z,73094
2017-05-07T00:52:00.297Z,73102
2017-05-07T00:52:10.400Z,73104
2017-05-07T00:52:20.490Z,73100
2017-05-07T00:52:30.579Z,73104
2017-05-07T00:52:40.392Z,73081
2017-05-07T00:52:50.484Z,73083
2017-05-07T00:53:00.292Z,73082
2017-05-07T00:53:10.101Z,73091
2017-05-07T00:53:20.196Z,73099
2017-05-07T00:53:30.292Z,73099
2017-05-07T00:53:40.392Z,73107
2017-05-07T00:53:50.197Z,73103
2017-05-07T00:54:00.294Z,73093
2017-05-07T00:54:10.393Z,73090
2017-05-07T00:54:19.911Z,73105
2017-05-07T00:54:29.723Z,73111
2017-05-07T00:54:39.245Z,73110
2017-05-07T00:54:49.340Z,73110
2017-05-07T00:54:59.434Z,73099
2017-05-07T00:55:09.526Z,73081
2017-05-07T00:55:19.330Z,73075
2017-05-07T00:55:29.421Z,73076
2017-05-07T00:55:39.520Z,73086
2017-05-07T00:55:49.614Z,73101
2017-05-07T00:55:59.702Z,73103
2017-05-07T00:56:09.790Z,73086
2017-05-07T00:56:19.596Z,73096
2017-05-07T00:56:29.689Z,73102
2017-05-07T00:56:39.784Z,73094
2017-05-07T00:56:49.913Z,73096
2017-05-07T00:57:00.002Z,73066
2017-05-07T00:57:09.811Z,73042
2017-05-07T00:57:19.613Z,73018
2017-05-07T00:57:29.416Z,73024
2017-05-07T00:57:39.548Z,73044
2017-05-07T00:57:49.642Z,73068
2017-05-07T00:57:59.736Z,73075
2017-05-07T00:58:09.573Z,73082
2017-05-07T00:58:19.380Z,73078
2017-05-07T00:58:29.477Z,73076
2017-05-07T00:58:39.570Z,73081
2017-05-07T00:58:49.675Z,73080
2017-05-07T00:58:59.769Z,73074
2017-05-07T00:59:09.859Z,73046
2017-05-07T00:59:19.971Z,73050
2017-05-07T00:59:29.775Z,73047
2017-05-07T00:59:39.871Z,73044
2017-05-07T00:59:49.963Z,73037
2017-05-07T00:59:59.778Z,73056
2017-05-07T01:00:09.588Z,73070
2017-05-07T01:00:19.101Z,73082
2017-05-07T01:00:29.188Z,73079
2017-05-07T01:00:39.288Z,73084
2017-05-07T01:00:49.383Z,73076
2017-05-07T01:00:59.473Z,73060
2017-05-07T01:01:09.277Z,73083
2017-05-07T01:01:19.124Z,73086
2017-05-07T01:01:29.225Z,73093
2017-05-07T01:01:39.315Z,73085
2017-05-07T01:01:49.410Z,73073
2017-05-07T01:01:59.508Z,73052
2017-05-07T01:02:09.595Z,73063
2017-05-07T01:02:19.686Z,73093
2017-05-07T01:02:29.780Z,73100
2017-05-07T01:02:39.887Z,73086
2017-05-07T01:02:49.989Z,73087
2017-05-07T01:02:59.518Z,73092
2017-05-07T01:03:09.608Z,73086
2017-05-07T01:03:19.707Z,73093
2017-05-07T01:03:29.800Z,73102
2017-05-07T01:03:39.888Z,73099
2017-05-07T01:03:50.007Z,73098
2017-05-07T01:03:59.816Z,73093
2017-05-07T01:04:09.621Z,73081
2017-05-07T01:04:19.725Z,73082
2017-05-07T01:04:29.528Z,73092
2017-05-07T01:04:39.630Z,73089
2017-05-07T01:04:49.444Z,73089
2017-05-07T01:04:59.544Z,73089
2017-05-07T01:05:09.641Z,73077
2017-05-07T01:05:19.161Z,73064
2017-05-07T01:05:29.249Z,73066
2017-05-07T01:05:39.341Z,73065
2017-05-07T01:05:49.144Z,73074
2017-05-07T01:05:59.240Z,73084
2017-05-07T01:06:09.332Z,73098
2017-05-07T01:06:19.423Z,73100
2017-05-07T01:06:29.556Z,73087
2017-05-07T01:06:39.373Z,73074
2017-05-07T01:06:49.481Z,73090
2017-05-07T01:06:59.571Z,73103
2017-05-07T01:07:09.664Z,73093
2017-05-07T01:07:19.468Z,73080
2017-05-07T01:07:29.555Z,73074
2017-05-07T01:07:39.648Z,73085
2017-05-07T01:07:49.743Z,73084
2017-05-07T01:07:59.832Z,73082
2017-05-07T01:08:09.671Z,73081
2017-05-07T01:08:19.773Z,73088
2017-05-07T01:08:29.868Z,73099
2017-05-07T01:08:39.963Z,73084
2017-05-07T01:08:49.485Z,73078
2017-05-07T01:08:59.587Z,73082
2017-05-07T01:09:09.394Z,73084
2017-05-07T01:09:19.205Z,73090
2017-05-07T01:09:29.008Z,73096
2017-05-07T01:09:39.101Z,73102
2017-05-07T01:09:49.192Z,73107
2017-05-07T01:09:59.288Z,73103
2017-05-07T01:10:09.382Z,73102
2017-05-07T01:10:19.183Z,73094
2017-05-07T01:10:28.734Z,73089
2017-05-07T01:10:38.543Z,73085
2017-05-07T01:10:48.635Z,73080
2017-05-07T01:10:58.723Z,73072
2017-05-07T01:11:08.530Z,73082
2017-05-07T01:11:18.333Z,73093
2017-05-07T01:11:28.423Z,73096
2017-05-07T01:11:38.518Z,73093
2017-05-07T01:11:48.614Z,73089
2017-05-07T01:11:58.704Z,73086
2017-05-07T01:12:08.215Z,73078
2017-05-07T01:12:18.023Z,73088
2017-05-07T01:12:28.117Z,73104
2017-05-07T01:12:37.958Z,73081
2017-05-07T01:12:48.052Z,73092
2017-05-07T01:12:58.145Z,73095
2017-05-07T01:13:07.960Z,73106
2017-05-07T01:13:18.059Z,73102
2017-05-07T01:13:28.160Z,73083
2017-05-07T01:13:38.257Z,73066
2017-05-07T01:13:48.349Z,73048
2017-05-07T01:13:58.440Z,73023
2017-05-07T01:14:08.243Z,73032
2017-05-07T01:14:18.057Z,73056
2017-05-07T01:14:28.169Z,73071
2017-05-07T01:14:38.263Z,73092
2017-05-07T01:14:48.359Z,73088
2017-05-07T01:14:58.456Z,73085
2017-05-07T01:15:08.549Z,73094
2017-05-07T01:15:18.355Z,73093
2017-05-07T01:15:27.887Z,73085
2017-05-07T01:15:37.976Z,73085
2017-05-07T01:15:48.066Z,73088
2017-05-07T01:15:58.159Z,73091
2017-05-07T01:16:07.975Z,73094
2017-05-07T01:16:17.801Z,73074
2017-05-07T01:16:27.891Z,73064
2017-05-07T01:16:37.693Z,73069
2017-05-07T01:16:47.783Z,73091
2017-05-07T01:16:57.588Z,73092
2017-05-07T01:17:07.400Z,73083
2017-05-07T01:17:16.918Z,73076
2017-05-07T01:17:27.016Z,73069
2017-05-07T01:17:37.112Z,73075
2017-05-07T01:17:47.210Z,73104
2017-05-07T01:17:57.309Z,73101
2017-05-07T01:18:07.398Z,73098
2017-05-07T01:18:17.211Z,73103
2017-05-07T01:18:27.339Z,73101
2017-05-07T01:18:37.143Z,73094
2017-05-07T01:18:46.947Z,73087
2017-05-07T01:18:56.752Z,73096
2017-05-07T01:19:06.858Z,73092
2017-05-07T01:19:16.669Z,73093
2017-05-07T01:19:26.768Z,73089
2017-05-07T01:19:36.859Z,73076
2017-05-07T01:19:46.956Z,73075
2017-05-07T01:19:57.054Z,73073
2017-05-07T01:20:07.148Z,73070
2017-05-07T01:20:16.952Z,73078
2017-05-07T01:20:27.049Z,73072
2017-05-07T01:20:37.147Z,73081
2017-05-07T01:20:47.243Z,73092
2017-05-07T01:20:57.049Z,73085
2017-05-07T01:21:07.142Z,73096
2017-05-07T01:21:16.979Z,73099
2017-05-07T01:21:27.078Z,73107
2017-05-07T01:21:37.166Z,73094
2017-05-07T01:21:46.995Z,73093
2017-05-07T01:21:57.094Z,73083
2017-05-07T01:22:07.185Z,73072
2017-05-07T01:22:17.307Z,73083
2017-05-07T01:22:27.111Z,73096
2017-05-07T01:22:37.205Z,73093
2017-05-07T01:22:47.299Z,73094
2017-05-07T01:22:57.392Z,73098
2017-05-07T01:23:07.489Z,73093
2017-05-07T01:23:17.588Z,73094
2017-05-07T01:23:27.680Z,73090
2017-05-07T01:23:37.778Z,73090
2017-05-07T01:23:47.875Z,73080
2017-05-07T01:23:57.967Z,73085
2017-05-07T01:24:08.061Z,73101
2017-05-07T01:24:17.579Z,73100
2017-05-07T01:24:27.392Z,73115
2017-05-07T01:24:37.492Z,73118
2017-05-07T01:24:47.583Z,73113
2017-05-07T01:24:57.688Z,73106
2017-05-07T01:25:07.782Z,73100
2017-05-07T01:25:17.295Z,73089
2017-05-07T01:25:26.813Z,73076
2017-05-07T01:25:36.905Z,73082
2017-05-07T01:25:46.995Z,73080
2017-05-07T01:25:57.109Z,73071
2017-05-07T01:26:07.201Z,73089
2017-05-07T01:26:17.006Z,73087
2017-05-07T01:26:26.524Z,73100
2017-05-07T01:26:36.610Z,73112
2017-05-07T01:26:46.701Z,73098
2017-05-07T01:26:56.533Z,73096
2017-05-07T01:27:06.625Z,73101
2017-05-07T01:27:16.718Z,73107
2017-05-07T01:27:26.819Z,73099
2017-05-07T01:27:36.914Z,73096
2017-05-07T01:27:46.717Z,73087
2017-05-07T01:27:56.806Z,73085
2017-05-07T01:28:06.612Z,73076
2017-05-07T01:28:16.130Z,73075
2017-05-07T01:28:26.227Z,73091
2017-05-07T01:28:36.038Z,73097
2017-05-07T01:28:46.129Z,73103
2017-05-07T01:28:56.223Z,73105
2017-05-07T01:29:06.321Z,73105
2017-05-07T01:29:15.842Z,73109
2017-05-07T01:29:25.652Z,73107
2017-05-07T01:29:35.781Z,73101
2017-05-07T01:29:45.589Z,73100
2017-05-07T01:29:55.684Z,73096
2017-05-07T01:30:05.785Z,73099
2017-05-07T01:30:15.879Z,73096
2017-05-07T01:30:25.971Z,73094
2017-05-07T01:30:36.063Z,73107
2017-05-07T01:30:46.156Z,73113
2017-05-07T01:30:56.244Z,73127
2017-05-07T01:31:06.335Z,73127
2017-05-07T01:31:16.433Z,73127
2017-05-07T01:31:26.527Z,73128
2017-05-07T01:31:36.334Z,73131
2017-05-07T01:31:46.428Z,73118
2017-05-07T01:31:56.526Z,73104
2017-05-07T01:32:06.330Z,73105
2017-05-07T01:32:16.136Z,73126
2017-05-07T01:32:26.265Z,73120
2017-05-07T01:32:36.117Z,73125
2017-05-07T01:32:46.213Z,73122
2017-05-07T01:32:56.305Z,73109
2017-05-07T01:33:06.114Z,73111
2017-05-07T01:33:16.215Z,73108
2017-05-07T01:33:26.317Z,73104
2017-05-07T01:33:36.418Z,73107
2017-05-07T01:33:46.558Z,73113
2017-05-07T01:33:56.653Z,73112
2017-05-07T01:34:06.747Z,73109
2017-05-07T01:34:16.847Z,73113
2017-05-07T01:34:26.948Z,73113
2017-05-07T01:34:37.046Z,73114
2017-05-07T01:34:46.865Z,73120
2017-05-07T01:34:56.959Z,73117
2017-05-07T01:35:07.052Z,73118
2017-05-07T01:35:17.176Z,73127
2017-05-07T01:35:27.270Z,73120
2017-05-07T01:35:37.361Z,73108
2017-05-07T01:35:47.199Z,73109
2017-05-07T01:35:57.320Z,73113
2017-05-07T01:36:07.414Z,73114
2017-05-07T01:36:16.931Z,73102
2017-05-07T01:36:26.448Z,73084
2017-05-07T01:36:36.264Z,73090
2017-05-07T01:36:46.357Z,73093
2017-05-07T01:36:56.449Z,73102
2017-05-07T01:37:06.250Z,73093
2017-05-07T01:37:16.066Z,73098
2017-05-07T01:37:25.879Z,73079
2017-05-07T01:37:36.012Z,73066
2017-05-07T01:37:46.116Z,73068
2017-05-07T01:37:55.955Z,73079
2017-05-07T01:38:06.057Z,73104
2017-05-07T01:38:15.861Z,73106
2017-05-07T01:38:25.951Z,73107
2017-05-07T01:38:35.470Z,73109
2017-05-07T01:38:45.565Z,73109
2017-05-07T01:38:55.374Z,73105
2017-05-07T01:39:05.474Z,73102
2017-05-07T01:39:15.568Z,73099
2017-05-07T01:39:25.660Z,73102
2017-05-07T01:39:35.756Z,73092
2017-05-07T01:39:45.272Z,73086
2017-05-07T01:39:55.080Z,73080
2017-05-07T01:40:05.173Z,73103
2017-05-07T01:40:14.698Z,73090
2017-05-07T01:40:24.794Z,73091
2017-05-07T01:40:34.898Z,73110
2017-05-07T01:40:44.998Z,73116
2017-05-07T01:40:55.093Z,73111
2017-05-07T01:41:05.184Z,73110
2017-05-07T01:41:14.986Z,73103
2017-05-07T01:41:25.104Z,73102
2017-05-07T01:41:34.914Z,73107
2017-05-07T01:41:45.010Z,73105
2017-05-07T01:41:55.100Z,73098
2017-05-07T01:42:04.657Z,73088
2017-05-07T01:42:14.465Z,73101
2017-05-07T01:42:23.984Z,73100
2017-05-07T01:42:34.077Z,73110
2017-05-07T01:42:44.216Z,73106
2017-05-07T01:42:54.311Z,73085
2017-05-07T01:43:04.410Z,73081
2017-05-07T01:43:14.229Z,73073
2017-05-07T01:43:24.323Z,73072
2017-05-07T01:43:34.423Z,73080
2017-05-07T01:43:44.522Z,73097
2017-05-07T01:43:54.620Z,73105
2017-05-07T01:44:04.139Z,73105
2017-05-07T01:44:13.941Z,73120
2017-05-07T01:44:23.745Z,73125
2017-05-07T01:44:33.556Z,73127
2017-05-07T01:44:43.653Z,73131
2017-05-07T01:44:53.757Z,73132
2017-05-07T01:45:03.869Z,73126
2017-05-07T01:45:13.673Z,73122
2017-05-07T01:45:23.765Z,73126
2017-05-07T01:45:33.857Z,73120
2017-05-07T01:45:43.951Z,73121
2017-05-07T01:45:54.041Z,73121
2017-05-07T01:46:03.849Z,73113
2017-05-07T01:46:13.660Z,73121
2017-05-07T01:46:23.187Z,73122
2017-05-07T01:46:33.280Z,73120
2017-05-07T01:46:43.375Z,73126
2017-05-07T01:46:53.483Z,73130
2017-05-07T01:47:03.577Z,73126
2017-05-07T01:47:13.384Z,73118
2017-05-07T01:47:23.187Z,73110
2017-05-07T01:47:33.278Z,73117
2017-05-07T01:47:43.369Z,73122
2017-05-07T01:47:53.465Z,73123
2017-05-07T01:48:03.269Z,73106
2017-05-07T01:48:12.507Z,73099
2017-05-07T01:48:22.600Z,73099
2017-05-07T01:48:32.693Z,73110
2017-05-07T01:48:42.784Z,73107
2017-05-07T01:48:52.879Z,73108
2017-05-07T01:49:02.401Z,73106
2017-05-07T01:49:12.503Z,73097
2017-05-07T01:49:22.601Z,73106
2017-05-07T01:49:32.696Z,73095
2017-05-07T01:49:42.792Z,73088
2017-05-07T01:49:52.879Z,73087
2017-05-07T01:50:02.967Z,73099
2017-05-07T01:50:12.771Z,73102
2017-05-07T01:50:22.872Z,73107
2017-05-07T01:50:32.964Z,73107
2017-05-07T01:50:42.772Z,73114
2017-05-07T01:50:52.581Z,73118
2017-05-07T01:51:02.675Z,73114
2017-05-07T01:51:12.478Z,73113
2017-05-07T01:51:22.292Z,73116
2017-05-07T01:51:32.096Z,73114
2017-05-07T01:51:42.194Z,73107
2017-05-07T01:51:52.326Z,73101
2017-05-07T01:52:02.423Z,73096
2017-05-07T01:52:12.520Z,73095
2017-05-07T01:52:22.331Z,73085
2017-05-07T01:52:32.424Z,73085
2017-05-07T01:52:42.528Z,73090
2017-05-07T01:52:52.634Z,73094
2017-05-07T01:53:02.733Z,73085
2017-05-07T01:53:12.249Z,73092
2017-05-07T01:53:22.058Z,73083
2017-05-07T01:53:31.578Z,73093
2017-05-07T01:53:41.675Z,73105
2017-05-07T01:53:51.797Z,73106
2017-05-07T01:54:01.901Z,73097
2017-05-07T01:54:11.995Z,73081
2017-05-07T01:54:21.515Z,73076
2017-05-07T01:54:31.603Z,73068
2017-05-07T01:54:41.694Z,73096
2017-05-07T01:54:51.499Z,73105
2017-05-07T01:55:01.591Z,73095
2017-05-07T01:55:11.397Z,73082
2017-05-07T01:55:21.490Z,73087
2017-05-07T01:55:31.583Z,73092
2017-05-07T01:55:41.105Z,73100
2017-05-07T01:55:51.197Z,73111
2017-05-07T01:56:00.998Z,73105
2017-05-07T01:56:11.090Z,73116
2017-05-07T01:56:20.903Z,73117
2017-05-07T01:56:31.000Z,73111
2017-05-07T01:56:41.096Z,73103
2017-05-07T01:56:51.192Z,73103
2017-05-07T01:57:01.311Z,73115
2017-05-07T01:57:11.111Z,73111
2017-05-07T01:57:20.914Z,73102
2017-05-07T01:57:31.009Z,73095
2017-05-07T01:57:41.101Z,73104
2017-05-07T01:57:51.199Z,73107
2017-05-07T01:58:01.292Z,73092
2017-05-07T01:58:11.097Z,73098
2017-05-07T01:58:21.191Z,73105
2017-05-07T01:58:30.995Z,73101
2017-05-07T01:58:41.083Z,73092
2017-05-07T01:58:51.185Z,73076
2017-05-07T01:59:01.281Z,73080
2017-05-07T01:59:11.367Z,73072
2017-05-07T01:59:21.505Z,73082
2017-05-07T01:59:31.312Z,73088
2017-05-07T01:59:41.111Z,73098
2017-05-07T01:59:51.208Z,73104
2017-05-07T02:00:01.303Z,73111
2017-05-07T02:00:11.397Z,73116
2017-05-07T02:00:21.485Z,73117
2017-05-07T02:00:31.287Z,73109
2017-05-07T02:00:41.091Z,73109
2017-05-07T02:00:51.183Z,73106
2017-05-07T02:01:01.274Z,73096
2017-05-07T02:01:10.788Z,73096
2017-05-07T02:01:20.627Z,73103
2017-05-07T02:01:30.436Z,73098
2017-05-07T02:01:40.569Z,73101
2017-05-07T02:01:50.374Z,73110
2017-05-07T02:02:00.459Z,73114
2017-05-07T02:02:10.557Z,73103
2017-05-07T02:02:20.658Z,73119
2017-05-07T02:02:30.459Z,73119
2017-05-07T02:02:40.551Z,73120
2017-05-07T02:02:50.641Z,73113
2017-05-07T02:03:00.737Z,73084
2017-05-07T02:03:10.831Z,73087
2017-05-07T02:03:20.924Z,73093
2017-05-07T02:03:30.733Z,73098
2017-05-07T02:03:40.826Z,73112
2017-05-07T02:03:50.919Z,73122
2017-05-07T02:04:01.024Z,73119
2017-05-07T02:04:10.838Z,73113
2017-05-07T02:04:20.652Z,73118
2017-05-07T02:04:30.744Z,73118
2017-05-07T02:04:40.866Z,73118
2017-05-07T02:04:50.959Z,73128
2017-05-07T02:05:01.075Z,73136
2017-05-07T02:05:10.882Z,73134
2017-05-07T02:05:20.691Z,73132
2017-05-07T02:05:30.496Z,73133
2017-05-07T02:05:40.595Z,73128
2017-05-07T02:05:50.680Z,73119
2017-05-07T02:06:00.772Z,73110
2017-05-07T02:06:10.864Z,73111
2017-05-07T02:06:20.669Z,73111
2017-05-07T02:06:30.764Z,73117
2017-05-07T02:06:40.856Z,73118
2017-05-07T02:06:50.946Z,73114
2017-05-07T02:07:01.035Z,73108
2017-05-07T02:07:10.868Z,73107
2017-05-07T02:07:20.959Z,73111
2017-05-07T02:07:30.765Z,73112
2017-05-07T02:07:40.856Z,73112
2017-05-07T02:07:50.984Z,73105
2017-05-07T02:08:00.798Z,73101
2017-05-07T02:08:10.888Z,73107
2017-05-07T02:08:20.979Z,73111